createdAt,value
2019-02-07T00:04:50.007Z,101393.52
2019-02-07T00:07:18.210Z,101388.07
2019-02-07T00:09:46.410Z,101380.92
2019-02-07T00:12:14.619Z,101384.22
2019-02-07T00:14:42.799Z,101370.53
2019-02-07T00:17:11.022Z,101364.45
2019-02-07T00:19:39.213Z,101364.17
2019-02-07T00:22:09.137Z,101360.33
2019-02-07T00:24:42.861Z,101359.23
2019-02-07T00:27:07.262Z,101350.70
2019-02-07T00:29:35.473Z,101352.91
2019-02-07T00:32:03.700Z,101349.05
2019-02-07T00:34:31.945Z,101345.68
2019-02-07T00:37:01.867Z,101344.82
2019-02-07T00:39:30.065Z,101331.27
2019-02-07T00:41:58.271Z,101324.13
2019-02-07T00:47:13.716Z,101310.44
2019-02-07T00:49:43.681Z,101309.92
2019-02-07T00:52:31.193Z,101309.72
2019-02-07T00:54:59.410Z,101308.73
2019-02-07T00:57:27.612Z,101297.21
2019-02-07T00:59:57.545Z,101290.09
2019-02-07T01:02:25.747Z,101287.89
2019-02-07T01:04:53.934Z,101286.83
2019-02-07T01:07:22.135Z,101282.78
2019-02-07T01:09:50.347Z,101280.58
2019-02-07T01:12:18.546Z,101281.41
2019-02-07T01:14:46.762Z,101274.02
2019-02-07T01:17:14.967Z,101272.13
2019-02-07T01:19:43.180Z,101270.23
2019-02-07T01:22:30.520Z,101270.23
2019-02-07T01:24:58.732Z,101260.65
2019-02-07T01:27:26.936Z,101254.70
2019-02-07T01:30:14.514Z,101250.27
2019-02-07T01:32:42.717Z,101249.72
2019-02-07T01:35:10.907Z,101242.84
2019-02-07T01:37:39.135Z,101242.02
2019-02-07T01:45:56.636Z,101233.13
2019-02-07T01:48:24.845Z,101229.38
2019-02-07T01:50:53.052Z,101225.30
2019-02-07T01:53:21.254Z,101225.88
2019-02-07T01:55:49.467Z,101216.30
2019-02-07T01:58:17.692Z,101204.27
2019-02-07T02:00:45.879Z,101208.73
2019-02-07T02:03:14.188Z,101202.80
2019-02-07T02:05:42.401Z,101188.81
2019-02-07T02:08:10.625Z,101187.78
2019-02-07T02:10:38.836Z,101185.11
2019-02-07T02:13:07.061Z,101176.34
2019-02-07T02:15:35.276Z,101175.31
2019-02-07T02:18:05.209Z,101166.02
2019-02-07T02:20:33.427Z,101165.50
2019-02-07T02:23:01.636Z,101157.80
2019-02-07T02:25:49.264Z,101154.33
2019-02-07T02:28:17.467Z,101151.89
2019-02-07T02:30:47.378Z,101154.37
2019-02-07T02:33:15.579Z,101142.87
2019-02-07T02:36:02.881Z,101147.27
2019-02-07T02:38:31.080Z,101135.14
2019-02-07T02:40:59.292Z,101133.77
2019-02-07T02:43:27.496Z,101134.94
2019-02-07T02:45:55.690Z,101127.52
2019-02-07T02:48:23.916Z,101117.12
2019-02-07T02:51:11.467Z,101113.31
2019-02-07T02:53:39.664Z,101107.27
2019-02-07T02:56:07.876Z,101097.97
2019-02-07T02:59:16.223Z,101098.25
2019-02-07T03:04:54.149Z,101089.66
2019-02-07T03:07:41.579Z,101088.02
2019-02-07T03:10:49.854Z,101079.81
2019-02-07T03:13:37.182Z,101086.41
2019-02-07T03:19:13.368Z,101059.02
2019-02-07T03:22:00.675Z,101067.80
2019-02-07T03:24:47.996Z,101064.55
2019-02-07T03:27:35.297Z,101047.28
2019-02-07T03:30:15.042Z,101019.63
2019-02-07T03:35:55.816Z,101057.72
2019-02-07T03:38:43.117Z,101037.44
2019-02-07T03:44:09.663Z,101013.42
2019-02-07T03:46:56.967Z,101016.16
2019-02-07T03:52:19.604Z,100989.98
2019-02-07T03:57:42.341Z,100997.70
2019-02-07T04:03:30.421Z,100975.70
2019-02-07T04:06:17.741Z,100969.12
2019-02-07T04:09:05.073Z,100953.78
2019-02-07T04:11:52.413Z,100953.03
2019-02-07T04:14:39.753Z,100966.84
2019-02-07T04:22:37.709Z,100952.70
2019-02-07T04:25:25.055Z,100928.91
2019-02-07T04:28:12.378Z,100935.22
2019-02-07T04:30:59.696Z,100933.64
2019-02-07T04:33:46.996Z,100924.31
2019-02-07T04:36:34.315Z,100936.97
2019-02-07T04:42:10.591Z,100916.16
2019-02-07T04:44:57.892Z,100913.85
2019-02-07T04:47:45.231Z,100904.77
2019-02-07T04:50:32.559Z,100877.33
2019-02-07T04:53:20.150Z,100884.69
2019-02-07T04:56:07.452Z,100885.83
2019-02-07T04:58:54.768Z,100866.34
2019-02-07T05:04:30.951Z,100882.06
2019-02-07T05:09:57.457Z,100867.48
2019-02-07T05:12:44.777Z,100855.68
2019-02-07T05:15:32.075Z,100850.31
2019-02-07T05:18:19.387Z,100840.98
2019-02-07T05:21:06.692Z,100847.92
2019-02-07T05:29:08.895Z,100822.36
2019-02-07T05:31:56.207Z,100820.21
2019-02-07T05:37:18.866Z,100815.78
2019-02-07T05:40:06.205Z,100806.81
2019-02-07T05:45:42.401Z,100803.55
2019-02-07T05:48:29.720Z,100792.07
2019-02-07T05:51:17.030Z,100787.45
2019-02-07T05:54:04.363Z,100790.23
2019-02-07T05:56:51.764Z,100779.93
2019-02-07T06:04:53.443Z,100776.13
2019-02-07T06:07:40.745Z,100765.70
2019-02-07T06:10:49.060Z,100763.83
2019-02-07T06:16:25.242Z,100753.56
2019-02-07T06:21:51.966Z,100737.81
2019-02-07T06:24:39.288Z,100734.30
2019-02-07T06:27:26.593Z,100730.80
2019-02-07T06:30:33.297Z,100718.75
2019-02-07T06:36:09.806Z,100705.36
2019-02-07T06:38:57.107Z,100693.48
2019-02-07T06:41:44.430Z,100692.62
2019-02-07T06:44:51.120Z,100693.17
2019-02-07T06:47:38.445Z,100693.37
2019-02-07T06:53:26.488Z,100680.39
2019-02-07T06:56:13.889Z,100673.77
2019-02-07T06:59:01.202Z,100666.69
2019-02-07T07:09:45.814Z,100655.91
2019-02-07T07:12:33.149Z,100651.75
2019-02-07T07:18:09.359Z,100637.22
2019-02-07T07:23:45.552Z,100628.80
2019-02-07T07:31:43.019Z,100626.66
2019-02-07T07:34:30.323Z,100623.91
2019-02-07T07:37:17.659Z,100618.19
2019-02-07T07:40:04.989Z,100615.95
2019-02-07T07:42:52.299Z,100606.05
2019-02-07T07:45:39.602Z,100607.73
2019-02-07T07:48:26.919Z,100601.06
2019-02-07T07:51:14.590Z,100592.52
2019-02-07T07:54:01.927Z,100595.53
2019-02-07T07:56:49.251Z,100589.28
2019-02-07T08:02:25.443Z,100582.06
2019-02-07T08:08:01.636Z,100572.78
2019-02-07T08:16:13.356Z,100564.13
2019-02-07T08:19:00.689Z,100568.48
2019-02-07T08:24:36.884Z,100557.91
2019-02-07T08:27:24.289Z,100554.53
2019-02-07T08:30:11.598Z,100555.85
2019-02-07T08:35:47.791Z,100554.38
2019-02-07T08:38:35.111Z,100545.02
2019-02-07T08:44:14.052Z,100538.97
2019-02-07T08:47:00.347Z,100530.37
2019-02-07T08:49:47.949Z,100532.30
2019-02-07T08:52:35.258Z,100542.16
2019-02-07T08:55:22.568Z,100524.56
2019-02-07T08:58:09.894Z,100522.31
2019-02-07T09:00:57.229Z,100516.83
2019-02-07T09:06:33.500Z,100523.08
2019-02-07T09:09:20.996Z,100509.05
2019-02-07T09:14:57.186Z,100517.22
2019-02-07T09:20:33.397Z,100500.75
2019-02-07T09:23:20.695Z,100493.02
2019-02-07T09:26:08.013Z,100497.31
2019-02-07T09:31:44.193Z,100488.14
2019-02-07T09:34:31.768Z,100485.08
2019-02-07T09:42:33.441Z,100490.69
2019-02-07T09:45:20.766Z,100487.06
2019-02-07T09:48:08.090Z,100489.66
2019-02-07T09:50:55.401Z,100481.86
2019-02-07T09:53:42.717Z,100470.81
2019-02-07T09:56:30.031Z,100461.93
2019-02-07T09:59:17.347Z,100470.27
2019-02-07T10:02:05.029Z,100471.20
2019-02-07T10:04:52.337Z,100476.86
2019-02-07T10:07:39.653Z,100459.20
2019-02-07T10:13:27.751Z,100457.94
2019-02-07T10:16:15.068Z,100464.32
2019-02-07T10:19:02.371Z,100466.12
2019-02-07T10:24:28.926Z,100460.00
2019-02-07T10:27:16.246Z,100453.88
2019-02-07T10:30:03.558Z,100455.91
2019-02-07T10:32:50.897Z,100449.12
2019-02-07T10:35:38.227Z,100451.19
2019-02-07T10:38:25.552Z,100445.84
2019-02-07T10:41:12.856Z,100449.31
2019-02-07T10:44:00.165Z,100436.31
2019-02-07T10:46:47.481Z,100435.84
2019-02-07T10:49:34.819Z,100438.57
2019-02-07T10:52:22.135Z,100432.38
2019-02-07T10:55:09.438Z,100430.66
2019-02-07T11:00:56.924Z,100436.31
2019-02-07T11:03:44.324Z,100427.84
2019-02-07T11:06:31.625Z,100423.94
2019-02-07T11:09:18.969Z,100430.92
2019-02-07T11:12:06.505Z,100420.41
2019-02-07T11:17:29.117Z,100408.03
2019-02-07T11:20:16.430Z,100414.58
2019-02-07T11:25:42.881Z,100414.28
2019-02-07T11:31:05.376Z,100408.67
2019-02-07T11:33:52.980Z,100402.61
2019-02-07T11:36:40.280Z,100392.75
2019-02-07T11:42:28.891Z,100394.84
2019-02-07T11:45:16.201Z,100403.09
2019-02-07T11:48:03.501Z,100397.84
2019-02-07T11:53:30.089Z,100392.98
2019-02-07T11:56:17.405Z,100386.25
2019-02-07T11:59:05.068Z,100389.18
2019-02-07T12:02:08.804Z,100381.08
2019-02-07T12:04:48.885Z,100383.75
2019-02-07T12:07:36.190Z,100380.47
2019-02-07T12:10:44.497Z,100370.05
2019-02-07T12:13:31.799Z,100361.47
2019-02-07T12:16:19.192Z,100361.80
2019-02-07T12:19:17.517Z,100353.48
2019-02-07T12:21:55.596Z,100354.30
2019-02-07T12:24:42.896Z,100341.59
2019-02-07T12:27:30.229Z,100356.70
2019-02-07T12:30:17.571Z,100354.91
2019-02-07T12:33:04.878Z,100352.27
2019-02-07T12:35:52.191Z,100336.08
2019-02-07T12:38:39.525Z,100345.30
2019-02-07T12:41:26.858Z,100344.39
2019-02-07T12:44:14.161Z,100345.77
2019-02-07T12:47:01.475Z,100332.42
2019-02-07T12:49:48.788Z,100332.67
2019-02-07T12:52:36.142Z,100328.47
2019-02-07T13:01:25.360Z,100317.73
2019-02-07T13:04:12.671Z,100297.42
2019-02-07T13:06:59.987Z,100309.27
2019-02-07T13:09:47.288Z,100307.12
2019-02-07T13:18:07.970Z,100312.91
2019-02-07T13:26:35.379Z,100326.58
2019-02-07T13:29:22.675Z,100325.94
2019-02-07T13:32:10.043Z,100321.22
2019-02-07T13:34:57.320Z,100309.39
2019-02-07T13:37:44.813Z,100337.77
2019-02-07T13:40:32.216Z,100319.40
2019-02-07T13:43:19.537Z,100333.22
2019-02-07T13:46:06.837Z,100343.02
2019-02-07T13:51:33.511Z,100347.01
2019-02-07T13:54:20.827Z,100333.36
2019-02-07T13:59:46.942Z,100344.24
2019-02-07T14:02:34.237Z,100350.13
2019-02-07T14:05:21.540Z,100351.52
2019-02-07T14:08:08.852Z,100346.34
2019-02-07T14:10:56.426Z,100359.70
2019-02-07T14:16:18.866Z,100354.17
2019-02-07T14:32:06.128Z,100362.24
2019-02-07T14:34:53.445Z,100363.63
2019-02-07T14:37:40.738Z,100371.57
2019-02-07T14:43:28.530Z,100372.39
2019-02-07T14:46:15.853Z,100376.29
2019-02-07T14:48:45.256Z,100374.78
2019-02-07T14:51:14.023Z,100376.28
2019-02-07T14:53:42.233Z,100371.57
2019-02-07T14:56:10.423Z,100389.08
2019-02-07T14:58:38.626Z,100384.47
2019-02-07T15:01:08.557Z,100385.74
2019-02-07T15:03:36.774Z,100380.42
2019-02-07T15:06:04.961Z,100373.41
2019-02-07T15:08:33.173Z,100384.70
2019-02-07T15:11:01.380Z,100372.38
2019-02-07T15:13:29.570Z,100364.45
2019-02-07T15:15:57.787Z,100360.16
2019-02-07T15:18:46.153Z,100362.61
2019-02-07T15:24:28.812Z,100362.25
2019-02-07T15:26:57.004Z,100367.67
2019-02-07T15:30:05.320Z,100368.91
2019-02-07T15:32:33.531Z,100377.55
2019-02-07T15:35:01.733Z,100365.81
2019-02-07T15:37:29.914Z,100372.81
2019-02-07T15:39:58.109Z,100352.31
2019-02-07T15:42:26.297Z,100347.70
2019-02-07T15:44:54.791Z,100352.55
2019-02-07T15:47:22.983Z,100355.77
2019-02-07T15:49:51.191Z,100351.95
2019-02-07T15:52:19.379Z,100357.02
2019-02-07T15:54:47.585Z,100351.24
2019-02-07T15:57:15.797Z,100358.41
2019-02-07T16:02:32.930Z,100353.58
2019-02-07T16:05:01.193Z,100359.36
2019-02-07T16:07:29.385Z,100364.28
2019-02-07T16:09:57.578Z,100366.83
2019-02-07T16:12:27.499Z,100367.64
2019-02-07T16:14:55.710Z,100382.13
2019-02-07T16:17:23.909Z,100380.05
2019-02-07T16:19:52.119Z,100371.28
2019-02-07T16:22:20.318Z,100381.40
2019-02-07T16:24:48.528Z,100375.16
2019-02-07T16:27:18.451Z,100365.48
2019-02-07T16:29:46.633Z,100374.21
2019-02-07T16:32:14.831Z,100383.50
2019-02-07T16:34:43.015Z,100379.34
2019-02-07T16:37:11.287Z,100380.85
2019-02-07T16:39:39.470Z,100377.47
2019-02-07T16:42:07.676Z,100367.79
2019-02-07T16:44:37.582Z,100373.19
2019-02-07T16:47:05.805Z,100370.30
2019-02-07T16:49:34.012Z,100379.24
2019-02-07T16:52:02.248Z,100371.63
2019-02-07T16:54:30.461Z,100380.44
2019-02-07T16:56:58.655Z,100371.78
2019-02-07T16:59:28.574Z,100380.97
2019-02-07T17:01:56.777Z,100376.92
2019-02-07T17:04:24.962Z,100385.63
2019-02-07T17:06:53.174Z,100379.18
2019-02-07T17:12:10.260Z,100380.81
2019-02-07T17:14:38.439Z,100380.68
2019-02-07T17:17:06.640Z,100380.86
2019-02-07T17:19:34.819Z,100377.07
2019-02-07T17:22:03.022Z,100371.09
2019-02-07T17:24:31.194Z,100380.02
2019-02-07T17:26:59.388Z,100380.45
2019-02-07T17:29:27.577Z,100382.41
2019-02-07T17:31:55.769Z,100379.97
2019-02-07T17:34:23.948Z,100391.12
2019-02-07T17:36:52.164Z,100372.48
2019-02-07T17:39:20.355Z,100371.44
2019-02-07T17:41:48.548Z,100376.48
2019-02-07T17:44:18.486Z,100379.58
2019-02-07T17:46:46.671Z,100374.72
2019-02-07T17:49:14.873Z,100371.48
2019-02-07T17:51:43.081Z,100369.64
2019-02-07T17:54:18.670Z,100368.94
2019-02-07T17:56:41.160Z,100364.09
2019-02-07T17:59:09.375Z,100373.16
2019-02-07T18:01:39.286Z,100366.28
2019-02-07T18:04:07.482Z,100370.06
2019-02-07T18:06:35.668Z,100361.46
2019-02-07T18:09:43.970Z,100350.44
2019-02-07T18:12:12.183Z,100357.02
2019-02-07T18:14:40.362Z,100371.36
2019-02-07T18:17:08.544Z,100366.19
2019-02-07T18:19:36.733Z,100366.50
2019-02-07T18:22:04.918Z,100370.63
2019-02-07T18:24:33.140Z,100372.27
2019-02-07T18:27:01.338Z,100361.80
2019-02-07T18:29:29.533Z,100364.00
2019-02-07T18:31:57.716Z,100354.91
2019-02-07T18:34:26.026Z,100358.23
2019-02-07T18:36:54.211Z,100367.09
2019-02-07T18:39:22.430Z,100364.90
2019-02-07T18:41:52.340Z,100372.13
2019-02-07T18:44:20.532Z,100383.94
2019-02-07T18:46:48.727Z,100391.89
2019-02-07T18:49:16.947Z,100404.29
2019-02-07T18:51:46.013Z,100399.56
2019-02-07T18:54:15.095Z,100420.34
2019-02-07T18:56:43.296Z,100407.17
2019-02-07T18:59:13.209Z,100398.04
2019-02-07T19:01:41.389Z,100410.50
2019-02-07T19:04:09.583Z,100402.66
2019-02-07T19:06:57.193Z,100407.52
2019-02-07T19:09:25.385Z,100404.06
2019-02-07T19:11:53.564Z,100407.80
2019-02-07T19:14:21.785Z,100408.14
2019-02-07T19:16:49.970Z,100405.38
2019-02-07T19:19:18.167Z,100403.41
2019-02-07T19:21:56.514Z,100400.35
2019-02-07T19:24:16.259Z,100407.94
2019-02-07T19:26:44.445Z,100394.09
2019-02-07T19:29:12.691Z,100400.97
2019-02-07T19:32:00.387Z,100401.53
2019-02-07T19:34:28.583Z,100406.39
2019-02-07T19:36:56.761Z,100405.50
2019-02-07T19:39:24.999Z,100402.97
2019-02-07T19:41:53.181Z,100401.28
2019-02-07T19:44:21.390Z,100408.39
2019-02-07T19:46:49.609Z,100404.52
2019-02-07T19:49:17.779Z,100412.66
2019-02-07T19:51:45.974Z,100406.59
2019-02-07T19:54:14.161Z,100411.53
2019-02-07T19:56:44.094Z,100405.95
2019-02-07T19:59:12.273Z,100420.50
2019-02-07T20:01:40.473Z,100420.02
2019-02-07T20:04:08.670Z,100418.09
2019-02-07T20:06:36.886Z,100419.13
2019-02-07T20:12:18.581Z,100419.13
2019-02-07T20:14:46.828Z,100431.09
2019-02-07T20:17:15.043Z,100447.41
2019-02-07T20:19:43.220Z,100448.95
2019-02-07T20:22:20.319Z,100463.31
2019-02-07T20:24:46.045Z,100473.43
2019-02-07T20:27:12.965Z,100482.81
2019-02-07T20:29:41.148Z,100497.16
2019-02-07T20:32:09.350Z,100492.31
2019-02-07T20:34:37.535Z,100499.06
2019-02-07T20:37:05.732Z,100498.24
2019-02-07T20:39:35.662Z,100501.89
2019-02-07T20:42:03.883Z,100506.02
2019-02-07T20:44:32.080Z,100510.72
2019-02-07T20:47:00.267Z,100516.56
2019-02-07T20:49:28.436Z,100513.14
2019-02-07T20:51:56.629Z,100521.59
2019-02-07T20:54:24.809Z,100519.96
2019-02-07T20:56:54.750Z,100527.66
2019-02-07T20:59:22.933Z,100527.18
2019-02-07T21:02:31.243Z,100533.58
2019-02-07T21:05:01.143Z,100549.47
2019-02-07T21:07:29.357Z,100545.27
2019-02-07T21:09:57.543Z,100541.05
2019-02-07T21:12:25.738Z,100558.06
2019-02-07T21:14:53.940Z,100544.70
2019-02-07T21:17:22.142Z,100555.30
2019-02-07T21:19:50.320Z,100547.78
2019-02-07T21:22:20.232Z,100556.36
2019-02-07T21:24:48.412Z,100557.81
2019-02-07T21:27:16.608Z,100556.11
2019-02-07T21:30:15.783Z,100559.27
2019-02-07T21:32:44.355Z,100552.16
2019-02-07T21:35:52.650Z,100568.66
2019-02-07T21:38:20.841Z,100570.27
2019-02-07T21:40:49.034Z,100574.73
2019-02-07T21:43:17.233Z,100574.80
2019-02-07T21:45:45.411Z,100574.57
2019-02-07T21:48:13.616Z,100589.22
2019-02-07T21:50:41.801Z,100595.77
2019-02-07T21:53:10.003Z,100592.20
2019-02-07T21:58:51.829Z,100602.72
2019-02-07T22:01:20.014Z,100608.95
2019-02-07T22:03:48.212Z,100613.53
2019-02-07T22:06:18.110Z,100613.11
2019-02-07T22:08:46.302Z,100618.71
2019-02-07T22:11:14.480Z,100624.21
2019-02-07T22:13:42.679Z,100625.00
2019-02-07T22:16:10.881Z,100617.56
2019-02-07T22:18:39.099Z,100630.77
2019-02-07T22:21:07.279Z,100635.22
2019-02-07T22:23:37.218Z,100626.97
2019-02-07T22:26:05.435Z,100625.59
2019-02-07T22:28:33.637Z,100633.61
2019-02-07T22:31:01.817Z,100635.38
2019-02-07T22:33:30.011Z,100637.97
2019-02-07T22:35:58.194Z,100645.10
2019-02-07T22:38:26.364Z,100639.34
2019-02-07T22:40:54.586Z,100641.37
2019-02-07T22:43:22.740Z,100645.00
2019-02-07T22:45:50.928Z,100640.05
2019-02-07T22:48:19.122Z,100641.66
2019-02-07T22:50:47.322Z,100639.23
2019-02-07T22:53:15.501Z,100644.73
2019-02-07T22:56:03.141Z,100654.36
2019-02-07T22:58:31.335Z,100646.38
2019-02-07T23:01:19.292Z,100646.94
2019-02-07T23:03:49.191Z,100647.88
2019-02-07T23:06:17.412Z,100657.56
2019-02-07T23:08:45.604Z,100661.20
2019-02-07T23:11:13.829Z,100657.95
2019-02-07T23:13:42.011Z,100657.45
2019-02-07T23:16:10.208Z,100668.28
2019-02-07T23:18:38.410Z,100670.80
2019-02-07T23:21:08.346Z,100669.10
2019-02-07T23:23:36.551Z,100675.42
2019-02-07T23:26:04.819Z,100682.03
2019-02-07T23:28:33.002Z,100677.35
2019-02-07T23:31:01.201Z,100678.89
2019-02-07T23:33:29.376Z,100684.07
2019-02-07T23:35:57.598Z,100689.28
2019-02-07T23:38:25.802Z,100690.88
2019-02-07T23:40:53.982Z,100702.93
2019-02-07T23:43:22.201Z,100691.77
2019-02-07T23:45:50.403Z,100694.52
2019-02-07T23:48:18.611Z,100691.77
2019-02-07T23:50:46.779Z,100696.45
2019-02-07T23:53:15.485Z,100694.28
2019-02-07T23:55:44.899Z,100694.84
2019-02-07T23:58:13.089Z,100701.22
